Station BEXA2 - Bethel, AK Image indicating link to RSS feed of recent meteorological observations for station BEXA2


Conditions at BEXA2 as of
(5:34 am AKDT)
1334 GMT on 07/22/2024:
     

Click on the graph icon in the table below to see a time series plot of the last five days of that observation.

5-day plot - Wind Direction Wind Direction (WDIR): N ( 10 deg true )
5-day plot - Wind Speed Wind Speed (WSPD): 5 kts
5-day plot - Wind Gust Wind Gust (GST): 6 kts
5-day plot - Air Temperature Air Temperature (ATMP): 58.5 °F
5-day plot - Dew Point Dew Point (DEWP): 52.3 °F
5-day plot - Wind Speed at 10 Meters Wind Speed at 10 meters (WSPD10M): 6 kts
5-day plot - Wind Speed at 20 Meters Wind Speed at 20 meters (WSPD20M): 6 kts
5-day plot -  Wind Speed, Wind Gust and Atmospheric Pressure Combined plot of Wind Speed, Gust, and Air Pressure
Previous observations
TIME
(AKDT)
5-day plot - Wind Direction
WDIR
 
5-day plot - Wind Speed
WSPD
kts
5-day plot - Wind Gust
GST
kts
5-day plot - Wave Height
WVHT
ft
5-day plot - Dominant Wave Period
DPD
sec
5-day plot - Average Wave Period
APD
sec
5-day plot - Mean Wave Direction
MWD
 
5-day plot - Atmospheric Pressure
PRES
in
5-day plot - Pressure Tendency
PTDY
in
5-day plot - Air Temperature
ATMP
°F
5-day plot - Water Temperature
WTMP
°F
5-day plot - Dew Point
DEWP
°F
5-day plot - Salinity
SAL
psu
5-day plot - Visibility
VIS
nmi
5-day plot - Tide (above MLLW)
TIDE
ft
2024-07-22 05:24 am N 4 5------ 58.5- 52.3---
2024-07-22 05:14 am N 5 5------ 58.6- 52.5---
2024-07-22 05:04 am N 5 6------ 59.4- 52.9---
2024-07-22 04:54 am N 5 6------ 60.1- 53.1---
2024-07-22 04:44 am N 5 6------ 60.4- 53.2---
2024-07-22 04:34 amNNE 6 8------ 60.8- 53.6---
2024-07-22 04:24 amNNE 7 8------ 61.0- 53.8---
2024-07-22 04:14 amNNE 7 9------ 61.2- 53.8---
2024-07-22 04:04 amNNE 7 8------ 61.2- 53.6---
2024-07-22 03:54 amNNE 6 8------ 61.2- 53.6---
2024-07-22 03:44 amNNE 6 7------ 61.3- 53.4---
2024-07-22 03:34 am N 6 7------ 61.3- 53.2---
2024-07-22 03:14 am N 6 8------ 61.3- 53.1---
2024-07-22 03:04 am N 6 7------ 61.5- 53.1---
2024-07-22 02:54 am N 6 8------ 61.9- 53.1---
2024-07-22 02:44 am N 7 8------ 62.2- 53.2---
2024-07-22 02:34 am N 7 8------ 62.4- 53.2---
2024-07-22 02:24 am N 7 9------ 62.8- 53.6---
2024-07-22 02:14 am N 7 8------ 63.0- 53.8---
2024-07-22 02:04 am N 7 9------ 63.1- 54.1---
2024-07-22 01:54 am N 7 9------ 63.5- 54.5---
2024-07-22 01:44 am N 6 8------ 63.3- 54.5---
2024-07-22 01:34 am N 5 7------ 63.9- 54.7---
2024-07-22 01:14 am N 7 10------ 64.8- 54.9---
2024-07-22 01:04 am N 8 10------ 64.9- 54.9---
2024-07-22 12:54 am N 7 9------ 65.1- 54.3---
2024-07-22 12:44 am N 7 8------ 65.3- 54.3---
2024-07-22 12:34 am N 7 9------ 65.8- 54.1---
2024-07-22 12:24 am N 7 9------ 66.6- 54.5---
2024-07-22 12:14 amNNE 7 8------ 66.9- 54.7---
2024-07-22 12:04 am N 6 8------ 66.9- 55.0---
2024-07-21 11:54 pm N 7 9------ 68.2- 55.0---
2024-07-21 11:44 pm N 7 9------ 69.1- 55.0---
2024-07-21 11:34 pm N 7 8------ 69.6- 55.0---
2024-07-21 11:24 pm N 5 7------ 70.2- 55.2---
2024-07-21 11:14 pm N 6 7------ 71.1- 54.7---
2024-07-21 11:04 pm N 6 8------ 71.8- 54.3---
2024-07-21 10:54 pm N 6 7------ 72.3- 54.1---
2024-07-21 10:44 pm N 6 8------ 73.0- 53.8---
2024-07-21 10:34 pm N 6 8------ 73.8- 53.8---
2024-07-21 10:24 pm N 6 7------ 74.5- 53.6---
2024-07-21 10:14 pm N 6 7------ 75.2- 53.8---
2024-07-21 10:04 pmNNE 6 9------ 75.9- 53.4---
2024-07-21 09:54 pmNNE 5 7------ 76.5- 54.3---
2024-07-21 09:44 pmNNE 5 8------ 76.8- 54.0---
2024-07-21 09:34 pm NE 5 7------ 77.2- 52.9---
2024-07-21 09:24 pm NE 5 7------ 77.5- 52.3---
2024-07-21 09:14 pm NE 5 7------ 77.7- 51.6---
2024-07-21 08:54 pm NE 5 8------ 78.1- 50.4---
2024-07-21 08:44 pm NE 5 7------ 78.3- 49.8---
2024-07-21 08:34 pm E 5 7------ 78.1- 49.6---
2024-07-21 08:24 pmENE 4 6------ 78.3- 50.2---
2024-07-21 08:14 pm E 4 7------ 78.3- 49.6---
2024-07-21 08:06 pmENE 6 9------ 78.1- 50.5---
2024-07-21 07:54 pmENE 3 7------ 78.6- 50.5---
2024-07-21 07:34 pm E 4 6------ 78.6- 49.6---
2024-07-21 07:24 pm NE 3 6------ 78.6- 50.0---
2024-07-21 07:14 pm NE 3 7------ 78.4- 49.8---
2024-07-21 06:54 pm E 3 7------ 77.9- 49.6---
2024-07-21 06:44 pmESE 4 6------ 77.2- 50.2---
2024-07-21 06:34 pmESE 3 5------ 77.7- 49.8---
2024-07-21 06:14 pmENE 5 12------ 78.1- 49.3---
2024-07-21 06:04 pmENE 4 8------ 77.9- 48.9---
2024-07-21 05:54 pm SE 2 5------ 77.9- 49.3---
2024-07-21 05:44 pm SE 2 4------ 78.4- 50.0---
2024-07-21 05:34 pm SE 2 5------ 77.5- 49.5---
2024-07-21 05:24 pm SE 2 4------ 77.2- 50.5---
2024-07-21 05:14 pm S 3 5------ 76.8- 50.5---
2024-07-21 05:04 pmESE 2 4------ 77.9- 50.4---
2024-07-21 04:54 pmENE 4 7------ 77.4- 51.1---
2024-07-21 04:44 pm E 3 7------ 77.5- 50.0---
2024-07-21 04:34 pmENE 3 7------ 77.0- 49.8---
2024-07-21 04:24 pm E 3 7------ 76.8- 50.5---
2024-07-21 04:14 pmENE 3 8------ 76.8- 50.4---
2024-07-21 03:54 pm NE 3 8------ 76.5- 51.3---
2024-07-21 03:34 pmENE 4 7------ 76.3- 51.4---
2024-07-21 03:24 pm NE 2 6------ 76.5- 52.0---
2024-07-21 03:14 pmENE 3 6------ 75.6- 52.2---
2024-07-21 03:04 pm NE 3 7------ 75.2- 52.2---
2024-07-21 02:54 pm E 3 5------ 74.7- 51.8---
2024-07-21 02:44 pm E 3 5------ 74.5- 51.8---
2024-07-21 02:34 pmENE 4 7------ 74.1- 51.4---
2024-07-21 02:24 pm E 4 7------ 73.9- 52.0---
2024-07-21 02:14 pm E 5 8------ 73.4- 52.3---
2024-07-21 02:04 pm E 5 8------ 73.0- 53.1---
2024-07-21 01:54 pmENE 5 12------ 72.7- 53.2---
2024-07-21 01:44 pm E 6 9------ 72.3- 53.2---
2024-07-21 01:34 pm E 5 8------ 72.0- 54.0---
2024-07-21 01:24 pmENE 6 9------ 71.6- 53.8---
2024-07-21 01:14 pm E 5 8------ 71.2- 53.2---
2024-07-21 01:04 pmENE 6 10------ 70.9- 53.6---
2024-07-21 12:54 pmENE 6 10------ 70.7- 53.6---
2024-07-21 12:44 pmENE 5 8------ 70.5- 53.6---
2024-07-21 12:34 pm NE 6 10------ 70.0- 53.4---
2024-07-21 12:24 pmENE 5 8------ 70.0- 54.1---
2024-07-21 12:14 pmENE 6 9------ 69.3- 53.2---
2024-07-21 12:04 pmENE 5 9------ 68.9- 54.0---
2024-07-21 11:54 am E 4 7------ 68.2- 53.8---
2024-07-21 11:44 am E 5 9------ 67.5- 52.9---
2024-07-21 11:34 am E 5 8------ 67.3- 53.1---
2024-07-21 11:24 am E 6 9------ 66.9- 52.3---
2024-07-21 11:14 amENE 6 9------ 66.2- 52.9---
2024-07-21 11:04 amENE 5 9------ 65.5- 53.8---
2024-07-21 10:54 am NE 7 10------ 64.9- 53.2---
2024-07-21 10:44 am E 5 7------ 64.4- 53.1---
2024-07-21 10:34 am E 5 7------ 63.9- 52.9---
2024-07-21 10:24 am E 5 6------ 63.3- 53.4---
2024-07-21 10:14 am E 5 7------ 64.0- 53.2---
2024-07-21 10:04 amENE 4 5------ 63.7- 53.1---
2024-07-21 09:54 am E 2 4------ 62.4- 53.1---
2024-07-21 09:44 amESE 2 3------ 62.2- 52.9---
2024-07-21 09:34 am E 2 4------ 62.6- 52.9---
2024-07-21 09:24 amENE 2 4------ 61.9- 52.5---
2024-07-21 09:14 am NE 3 5------ 60.4- 52.2---
2024-07-21 09:04 am NE 4 5------ 59.5- 52.2---
2024-07-21 08:54 am NE 3 5------ 58.5- 51.6---
2024-07-21 08:44 amNNE 4 6------ 57.4- 50.9---
2024-07-21 08:34 amNNE 4 5------ 56.1- 51.1---
2024-07-21 08:24 amNNE 3 4------ 55.2- 50.4---
2024-07-21 08:14 amNNE 4 6------ 54.7- 49.8---
2024-07-21 08:04 amNNE 5 6------ 54.0- 49.3---
2024-07-21 07:54 am N 4 5------ 53.2- 48.7---
2024-07-21 07:44 am N 3 4------ 53.1- 48.4---
2024-07-21 07:34 am N 5 5------ 53.8- 48.6---
2024-07-21 07:14 am N 2 4------ 53.4- 49.3---
2024-07-21 07:04 am- 0 1------ 53.2- 49.3---
2024-07-21 06:54 amSSW 2 2------ 52.9- 49.1---
2024-07-21 06:44 am- 0 1------ 52.9- 49.1---
2024-07-21 06:34 am- 0 2------ 52.5- 48.7---
2024-07-21 06:24 am W 2 2------ 52.3- 48.4---
2024-07-21 06:14 am N 1 2------ 53.8- 49.5---
2024-07-21 06:04 am NE 2 3------ 53.6- 49.3---
2024-07-21 05:44 amENE 2 3------ 53.1- 48.7---
2024-07-21 05:34 am NE 2 4------ 53.2- 48.6---
2024-07-21 05:24 am NE 2 3------ 54.0- 48.7---
2024-07-21 05:14 amENE 2 5------ 55.2- 48.7---
2024-07-21 05:04 am N 5 5------ 57.9- 49.6---
2024-07-21 04:54 am N 5 6------ 57.6- 49.8---